Edinburgh, Verenigd Koninkrijk

5:34 AM GMT op 28 november 2014 (GMT +0000)
Edinburgh Airport | Change Station
CLOSE
Current Station
Luchthaven
Location: Edinburgh Airport,
Geometrische hoogte: 135 ft
Nabije weerstations

Hoogte 135 ft 55.95 °N, 3.35 °W | Updated 14 minutes ago

Fog
Mist
37 °F
Voelt als 37 °F
N
0
Wind Variabel Wind van noord

Vandaag
Hoog -- | Laag -- °F
--% Kans op neerslag
Gisteren
Hoog -- | Laag -- °F
Precip. -- inches
8:14 AM 3:47 PM
Wassende halvemaan, 36% visible
Druk 29.68 inches
Zicht 0.3 mijlen
Wolken Geheel bewolkt 100 ft
Dauwpunt 37 °F
Vochtigheid 100%
Neerslag 0.00 inches
Dikte sneeuw Niet beschikbaar.
UV 0 van de 12
Pollen Niet beschikbaar.
Luchtkwaliteit Niet beschikbaar.
Flu Activity Niet beschikbaar.
METAR EGPH 280520Z 00000KT 0450 R06/0650 FG OVC001 03/03 Q1005

More Conditions Fewer Conditions

Druk 29.68 inches
Zicht 0.3 mijlen
Wolken Geheel bewolkt 100 ft
Dauwpunt 37 °F
Vochtigheid 100%
Neerslag 0.00 inches
Dikte sneeuw Niet beschikbaar.
UV 0 van de 12
Pollen Niet beschikbaar.
Luchtkwaliteit Niet beschikbaar.
Flu Activity Niet beschikbaar.
METAR EGPH 280520Z 00000KT 0450 R06/0650 FG OVC001 03/03 Q1005

More Conditions Fewer Conditions

10-Day Weather Forecast

Almanac

Astronomie

Nov. 28, 2014 Opkomst Ondergang
Werkelijke tijd
Burgerlijke schemering
Nautische schemering
Astronomische schemering
Maan
Golflengte van het zichtbare licht
Daglengte
Tomorrow will be .
, % of the Moon is Illuminated

Extremen vandaag

Country Highs Country Lows

Community

WunderPhotos

Upload Photos

1,774,195 foto’s ge-upload!

WunderBlogs® & News

Nearby

Luchtkwaliteit

  Luchtkwaliteit LK-index Verontreinigende stof
Not available.

Dikte sneeuw

Station Depth Geometrische hoogte

Aardbevingen

Stad Distance Mag. Time & Date
Minimum magnitude displayed is 2.5.

Watertemperatuur langs de kust

Plaats Temperatuur

Nabije weerstations